Maliotenam, Canada
Current Conditions -  °F | °C
As of 7:00 PM on Wednesday 26 Nov 2014 (Local Time) from CYZV Reporting Station
Broken Clouds Broken Clouds  
Wind Chill: 17°   Ceiling: 20000
Heat Index: 23°   Visibility: 15mi
Dew Point: 12°   Wind: 5mph
Humidity: 63%   Direction: 340°NNW
Pressure: 30.2"   Gusts: NA
Location:  50.21°N, 66.19°W
Report Text: CYZV 270000Z 34004KT 15SM BKN200 M05/M11 A3020 RMK CI7 SLP231
Loading
Personal Weather Stations






























Interactive Weather Map New forecast layout! Learn more

10-Day Weather Forecast

Advertisements
Track Severe Weather on mobile